createdAt,value
2019-03-08T00:00:21.173Z,99100.28
2019-03-08T00:02:48.803Z,99099.41
2019-03-08T00:05:16.821Z,99096.38
2019-03-08T00:07:44.467Z,99101.14
2019-03-08T00:10:12.124Z,99105.02
2019-03-08T00:12:39.754Z,99110.55
2019-03-08T00:15:07.409Z,99113.68
2019-03-08T00:17:35.052Z,99106.91
2019-03-08T00:20:02.684Z,99113.71
2019-03-08T00:22:30.331Z,99104.47
2019-03-08T00:24:57.987Z,99097.39
2019-03-08T00:27:25.639Z,99095.45
2019-03-08T00:29:53.363Z,99098.52
2019-03-08T00:32:21.018Z,99091.77
2019-03-08T00:34:48.658Z,99093.47
2019-03-08T00:37:16.473Z,99088.21
2019-03-08T00:39:44.106Z,99092.95
2019-03-08T00:42:11.734Z,99094.66
2019-03-08T00:44:39.380Z,99097.80
2019-03-08T00:47:07.032Z,99105.53
2019-03-08T00:49:34.663Z,99103.83
2019-03-08T00:52:02.321Z,99113.50
2019-03-08T00:54:30.235Z,99102.23
2019-03-08T00:56:57.870Z,99107.86
2019-03-08T00:59:25.503Z,99110.98
2019-03-08T01:01:53.142Z,99097.91
2019-03-08T01:04:20.781Z,99097.38
2019-03-08T01:06:48.424Z,99096.50
2019-03-08T01:09:16.442Z,99089.41
2019-03-08T01:11:45.340Z,99092.59
2019-03-08T01:14:13.203Z,99082.25
2019-03-08T01:16:40.842Z,99084.27
2019-03-08T01:19:08.477Z,99073.70
2019-03-08T01:21:36.116Z,99062.64
2019-03-08T01:24:03.755Z,99056.86
2019-03-08T01:26:31.533Z,99060.27
2019-03-08T01:28:59.506Z,99062.46
2019-03-08T01:31:27.187Z,99072.63
2019-03-08T01:33:54.832Z,99069.22
2019-03-08T01:36:22.473Z,99067.94
2019-03-08T01:38:50.126Z,99065.73
2019-03-08T01:41:18.042Z,99067.53
2019-03-08T01:43:45.671Z,99074.83
2019-03-08T01:46:13.314Z,99059.02
2019-03-08T01:48:40.951Z,99055.52
2019-03-08T01:51:08.590Z,99048.43
2019-03-08T01:53:36.231Z,99045.22
2019-03-08T01:56:03.870Z,99041.95
2019-03-08T01:58:31.515Z,99043.23
2019-03-08T02:00:59.189Z,99046.66
2019-03-08T02:03:26.901Z,99034.17
2019-03-08T02:05:54.545Z,99034.06
2019-03-08T02:08:22.186Z,99025.26
2019-03-08T02:10:49.829Z,99040.06
2019-03-08T02:13:17.945Z,99025.45
2019-03-08T02:15:45.649Z,99027.38
2019-03-08T02:18:13.402Z,99021.95
2019-03-08T02:20:41.287Z,99024.38
2019-03-08T02:23:08.931Z,99016.47
2019-03-08T02:25:36.588Z,99015.81
2019-03-08T02:28:04.402Z,99010.36
2019-03-08T02:30:32.415Z,99006.94
2019-03-08T02:33:00.106Z,99015.03
2019-03-08T02:35:27.743Z,99007.02
2019-03-08T02:37:55.373Z,99007.52
2019-03-08T02:40:23.019Z,99008.14
2019-03-08T02:42:50.707Z,99009.43
2019-03-08T02:45:18.675Z,99011.79
2019-03-08T02:47:46.338Z,99016.45
2019-03-08T02:50:14.002Z,99008.80
2019-03-08T02:52:41.713Z,99001.40
2019-03-08T02:55:09.366Z,98996.42
2019-03-08T02:57:37.010Z,98993.97
2019-03-08T03:00:04.935Z,98991.18
2019-03-08T03:02:32.588Z,99001.53
2019-03-08T03:05:00.388Z,98995.21
2019-03-08T03:07:28.145Z,98998.27
2019-03-08T03:09:55.793Z,99001.94
2019-03-08T03:12:23.439Z,98999.20
2019-03-08T03:14:51.199Z,98991.80
2019-03-08T03:17:18.915Z,98999.52
2019-03-08T03:19:46.678Z,98989.50
2019-03-08T03:22:14.309Z,98990.91
2019-03-08T03:24:41.952Z,98988.21
2019-03-08T03:27:09.594Z,98991.30
2019-03-08T03:29:37.238Z,98997.13
2019-03-08T03:32:05.269Z,98999.88
2019-03-08T03:34:32.911Z,99005.23
2019-03-08T03:37:00.555Z,98999.49
2019-03-08T03:39:28.181Z,99015.45
2019-03-08T03:41:55.823Z,98995.48
2019-03-08T03:44:23.478Z,99000.41
2019-03-08T03:46:51.135Z,99016.23
2019-03-08T03:49:18.864Z,99008.53
2019-03-08T03:51:46.512Z,99012.89
2019-03-08T03:54:14.149Z,99013.94
2019-03-08T03:56:41.782Z,99012.70
2019-03-08T03:59:09.415Z,99023.50
2019-03-08T04:01:40.824Z,99021.67
2019-03-08T04:04:08.468Z,99031.61
2019-03-08T04:06:36.934Z,99024.34
2019-03-08T04:09:04.736Z,99027.91
2019-03-08T04:11:32.396Z,99028.05
2019-03-08T04:14:00.030Z,99027.73
2019-03-08T04:16:27.686Z,99020.55
2019-03-08T04:18:55.516Z,99031.63
2019-03-08T04:21:23.162Z,99031.59
2019-03-08T04:23:50.794Z,99015.13
2019-03-08T04:26:18.455Z,99012.92
2019-03-08T04:28:46.115Z,99016.86
2019-03-08T04:31:13.792Z,99023.27
2019-03-08T04:33:41.443Z,99016.86
2019-03-08T04:36:09.086Z,99017.84
2019-03-08T04:38:36.726Z,99023.00
2019-03-08T04:41:04.378Z,99007.92
2019-03-08T04:43:32.050Z,99030.66
2019-03-08T04:45:59.690Z,99025.55
2019-03-08T04:48:27.416Z,99020.23
2019-03-08T04:50:55.342Z,99024.69
2019-03-08T04:53:22.981Z,99012.28
2019-03-08T04:55:50.624Z,99034.58
2019-03-08T04:58:18.267Z,99031.91
2019-03-08T05:00:45.921Z,99035.58
2019-03-08T05:03:13.577Z,99036.95
2019-03-08T05:05:41.244Z,99031.29
2019-03-08T05:08:08.902Z,99032.70
2019-03-08T05:10:36.534Z,99022.32
2019-03-08T05:13:04.188Z,99033.66
2019-03-08T05:15:31.842Z,99032.04
2019-03-08T05:17:59.574Z,99019.27
2019-03-08T05:20:27.224Z,99026.70
2019-03-08T05:22:55.156Z,99022.23
2019-03-08T05:25:22.798Z,99039.98
2019-03-08T05:27:50.427Z,99032.91
2019-03-08T05:30:18.097Z,99021.52
2019-03-08T05:32:45.752Z,99033.33
2019-03-08T05:35:13.398Z,99024.22
2019-03-08T05:37:41.037Z,99042.27
2019-03-08T05:40:09.055Z,99044.05
2019-03-08T05:42:36.703Z,99042.52
2019-03-08T05:45:04.350Z,99039.06
2019-03-08T05:47:31.983Z,99056.90
2019-03-08T05:49:59.662Z,99045.89
2019-03-08T05:52:27.310Z,99056.48
2019-03-08T05:54:54.962Z,99061.69
2019-03-08T05:57:22.617Z,99064.14
2019-03-08T05:59:50.260Z,99074.49
2019-03-08T06:02:17.899Z,99064.70
2019-03-08T06:04:45.607Z,99070.55
2019-03-08T06:07:13.265Z,99079.61
2019-03-08T06:09:40.906Z,99074.13
2019-03-08T06:12:08.831Z,99084.67
2019-03-08T06:14:36.465Z,99072.83
2019-03-08T06:17:04.093Z,99085.27
2019-03-08T06:19:31.775Z,99084.34
2019-03-08T06:21:59.431Z,99080.35
2019-03-08T06:24:27.071Z,99079.89
2019-03-08T06:26:55.203Z,99099.44
2019-03-08T06:29:23.151Z,99102.54
2019-03-08T06:31:50.808Z,99111.02
2019-03-08T06:34:18.442Z,99125.03
2019-03-08T06:36:46.094Z,99134.33
2019-03-08T06:39:13.742Z,99138.34
2019-03-08T06:41:41.376Z,99136.48
2019-03-08T06:44:09.031Z,99156.13
2019-03-08T06:46:37.046Z,99150.89
2019-03-08T06:49:04.695Z,99154.37
2019-03-08T06:51:32.339Z,99161.71
2019-03-08T06:53:59.978Z,99164.31
2019-03-08T06:56:27.610Z,99165.78
2019-03-08T06:59:15.123Z,99146.03
2019-03-08T07:01:43.229Z,99172.08
2019-03-08T07:04:10.890Z,99177.23
2019-03-08T07:06:38.552Z,99173.36
2019-03-08T07:09:06.201Z,99178.56
2019-03-08T07:11:33.890Z,99181.09
2019-03-08T07:14:01.535Z,99195.22
2019-03-08T07:16:29.167Z,99176.83
2019-03-08T07:18:56.816Z,99191.06
2019-03-08T07:21:29.938Z,99194.73
2019-03-08T07:24:04.209Z,99201.53
2019-03-08T07:26:40.660Z,99209.84
2019-03-08T07:29:20.100Z,99202.78
2019-03-08T07:32:00.275Z,99220.33
2019-03-08T07:34:39.074Z,99222.87
2019-03-08T07:37:21.282Z,99245.24
2019-03-08T07:39:57.555Z,99238.03
2019-03-08T07:42:35.563Z,99240.31
2019-03-08T07:45:14.995Z,99240.84
2019-03-08T07:47:52.061Z,99250.33
2019-03-08T07:50:42.842Z,99238.29
2019-03-08T07:53:21.488Z,99244.33
2019-03-08T07:56:07.320Z,99248.20
2019-03-08T07:58:47.648Z,99258.47
2019-03-08T08:01:25.954Z,99255.77
2019-03-08T08:04:01.312Z,99270.39
2019-03-08T08:06:35.927Z,99282.02
2019-03-08T08:09:12.828Z,99282.43
2019-03-08T08:11:53.976Z,99309.09
2019-03-08T08:14:27.797Z,99294.51
2019-03-08T08:17:08.042Z,99303.89
2019-03-08T08:19:40.870Z,99314.59
2019-03-08T08:22:20.177Z,99319.38
2019-03-08T08:24:58.916Z,99325.88
2019-03-08T08:27:51.531Z,99347.79
2019-03-08T08:30:32.462Z,99330.00
2019-03-08T08:33:11.530Z,99351.95
2019-03-08T08:35:44.525Z,99353.33
2019-03-08T08:38:17.470Z,99357.20
2019-03-08T08:40:53.782Z,99355.63
2019-03-08T08:43:41.400Z,99367.25
2019-03-08T08:46:14.373Z,99363.05
2019-03-08T08:49:01.989Z,99375.50
2019-03-08T08:51:41.213Z,99373.79
2019-03-08T08:54:14.054Z,99382.38
2019-03-08T08:57:02.795Z,99387.25
2019-03-08T08:59:36.309Z,99382.95
2019-03-08T09:02:12.872Z,99394.41
2019-03-08T09:04:47.392Z,99393.32
2019-03-08T09:07:23.970Z,99417.38
2019-03-08T09:10:01.767Z,99415.75
2019-03-08T09:12:48.871Z,99400.91
2019-03-08T09:15:23.854Z,99407.03
2019-03-08T09:18:00.288Z,99404.08
2019-03-08T09:20:41.167Z,99389.94
2019-03-08T09:23:17.416Z,99392.61
2019-03-08T09:25:52.668Z,99409.98
2019-03-08T09:28:32.428Z,99404.77
2019-03-08T09:31:12.881Z,99411.45
2019-03-08T09:33:49.744Z,99422.75
2019-03-08T09:36:22.642Z,99448.55
2019-03-08T09:39:06.560Z,99429.97
2019-03-08T09:41:40.578Z,99427.84
2019-03-08T09:44:22.502Z,99428.42
2019-03-08T09:46:55.278Z,99442.14
2019-03-08T09:49:35.906Z,99429.80
2019-03-08T09:52:15.141Z,99459.73
2019-03-08T09:54:48.523Z,99456.02
2019-03-08T09:57:40.147Z,99449.39
2019-03-08T10:02:54.703Z,99480.62
2019-03-08T10:08:09.083Z,99492.42
2019-03-08T10:13:23.009Z,99492.88
2019-03-08T10:15:55.170Z,99494.34
2019-03-08T10:18:30.917Z,99498.17
2019-03-08T10:21:04.118Z,99506.18
2019-03-08T10:23:37.065Z,99504.47
2019-03-08T10:26:12.142Z,99500.25
2019-03-08T10:28:48.499Z,99510.22
2019-03-08T10:31:22.678Z,99514.18
2019-03-08T10:33:55.585Z,99518.39
2019-03-08T10:36:37.418Z,99523.61
2019-03-08T10:39:12.309Z,99541.00
2019-03-08T10:41:47.067Z,99534.45
2019-03-08T10:46:48.936Z,99521.57
2019-03-08T10:49:36.721Z,99531.25
2019-03-08T10:52:17.390Z,99524.33
2019-03-08T10:54:49.099Z,99527.67
2019-03-08T10:57:29.876Z,99530.92
2019-03-08T11:00:07.947Z,99533.22
2019-03-08T11:02:48.250Z,99537.09
2019-03-08T11:08:05.003Z,99537.76
2019-03-08T11:10:39.999Z,99545.35
2019-03-08T11:13:25.891Z,99555.33
2019-03-08T11:16:01.548Z,99563.30
2019-03-08T11:21:00.442Z,99568.61
2019-03-08T11:23:37.007Z,99571.10
2019-03-08T11:26:10.096Z,99591.78
2019-03-08T11:28:45.142Z,99586.84
2019-03-08T11:31:18.388Z,99592.34
2019-03-08T11:33:58.227Z,99596.98
2019-03-08T11:38:59.503Z,99618.27
2019-03-08T11:41:32.014Z,99610.98
2019-03-08T11:44:10.945Z,99621.00
2019-03-08T11:46:57.655Z,99618.01
2019-03-08T11:49:37.095Z,99625.30
2019-03-08T11:52:13.120Z,99632.27
2019-03-08T11:54:45.973Z,99632.91
2019-03-08T11:57:22.719Z,99623.00
2019-03-08T12:00:02.161Z,99633.48
2019-03-08T12:02:43.736Z,99630.91
2019-03-08T12:05:18.459Z,99637.22
2019-03-08T12:07:53.400Z,99641.75
2019-03-08T12:10:26.466Z,99645.27
2019-03-08T12:13:13.211Z,99637.31
2019-03-08T12:16:02.183Z,99648.02
2019-03-08T12:18:37.791Z,99649.16
2019-03-08T12:21:17.650Z,99644.67
2019-03-08T12:23:52.385Z,99652.28
2019-03-08T12:26:25.348Z,99648.41
2019-03-08T12:29:00.606Z,99657.66
2019-03-08T12:31:40.775Z,99655.74
2019-03-08T12:34:18.286Z,99659.08
2019-03-08T12:36:51.854Z,99652.20
2019-03-08T12:39:38.543Z,99654.36
2019-03-08T12:42:11.451Z,99650.59
2019-03-08T12:44:49.369Z,99661.09
2019-03-08T12:47:27.937Z,99663.25
2019-03-08T12:50:04.645Z,99680.45
2019-03-08T12:52:44.610Z,99681.27
2019-03-08T12:55:17.481Z,99680.38
2019-03-08T12:57:50.437Z,99683.83
2019-03-08T13:00:29.602Z,99685.69
2019-03-08T13:03:08.958Z,99687.34
2019-03-08T13:05:53.325Z,99695.26
2019-03-08T13:08:36.536Z,99687.32
2019-03-08T13:11:04.191Z,99683.33
2019-03-08T13:13:31.855Z,99689.85
2019-03-08T13:15:59.506Z,99690.66
2019-03-08T13:18:27.556Z,99686.03
2019-03-08T13:20:55.194Z,99694.41
2019-03-08T13:23:22.870Z,99699.59
2019-03-08T13:25:50.568Z,99692.34
2019-03-08T13:28:18.211Z,99687.91
2019-03-08T13:30:45.850Z,99679.79
2019-03-08T13:33:13.487Z,99688.99
2019-03-08T13:35:41.139Z,99701.45
2019-03-08T13:38:08.783Z,99717.90
2019-03-08T13:40:36.427Z,99717.99
2019-03-08T13:43:04.065Z,99716.03
2019-03-08T13:45:31.728Z,99723.23
2019-03-08T13:47:59.445Z,99718.45
2019-03-08T13:50:27.402Z,99722.12
2019-03-08T13:52:55.133Z,99728.48
2019-03-08T13:55:22.820Z,99734.59
2019-03-08T13:57:50.468Z,99728.34
2019-03-08T14:00:18.124Z,99738.88
2019-03-08T14:02:45.759Z,99743.06
2019-03-08T14:05:13.394Z,99740.67
2019-03-08T14:07:41.069Z,99748.00
2019-03-08T14:10:08.725Z,99761.84
2019-03-08T14:12:36.379Z,99752.93
2019-03-08T14:15:04.027Z,99756.48
2019-03-08T14:17:31.705Z,99757.09
2019-03-08T14:19:59.359Z,99755.55
2019-03-08T14:22:27.397Z,99762.98
2019-03-08T14:24:55.151Z,99760.00
2019-03-08T14:27:22.810Z,99761.48
2019-03-08T14:29:50.459Z,99756.58
2019-03-08T14:32:21.293Z,99761.84
2019-03-08T14:34:49.597Z,99768.30
2019-03-08T14:37:19.861Z,99778.41
2019-03-08T14:39:47.634Z,99777.67
2019-03-08T14:42:20.501Z,99782.84
2019-03-08T14:44:53.612Z,99791.56
2019-03-08T14:47:25.099Z,99790.20
2019-03-08T14:49:55.353Z,99791.05
2019-03-08T14:52:22.664Z,99797.92
2019-03-08T14:54:50.485Z,99788.77
2019-03-08T14:57:26.899Z,99795.47
2019-03-08T14:59:49.314Z,99801.91
2019-03-08T15:02:16.872Z,99793.70
2019-03-08T15:04:44.507Z,99795.23
2019-03-08T15:07:12.152Z,99804.38
2019-03-08T15:09:39.827Z,99807.97
2019-03-08T15:12:13.612Z,99824.78
2019-03-08T15:14:36.829Z,99829.84
2019-03-08T15:17:09.178Z,99840.75
2019-03-08T15:19:36.225Z,99846.72
2019-03-08T15:22:07.949Z,99855.74
2019-03-08T15:24:38.487Z,99869.61
2019-03-08T15:27:05.010Z,99885.30
2019-03-08T15:29:32.939Z,99886.63
2019-03-08T15:32:00.594Z,99907.64
2019-03-08T15:34:28.231Z,99923.34
2019-03-08T15:36:55.860Z,99927.36
2019-03-08T15:39:23.494Z,99919.59
2019-03-08T15:41:51.277Z,99925.03
2019-03-08T15:44:19.203Z,99913.48
2019-03-08T15:46:46.859Z,99893.02
2019-03-08T15:49:14.520Z,99893.13
2019-03-08T15:51:42.245Z,99887.20
2019-03-08T15:54:09.956Z,99892.48
2019-03-08T15:56:37.699Z,99896.11
2019-03-08T15:59:05.755Z,99899.73
2019-03-08T16:01:33.455Z,99904.62
2019-03-08T16:04:01.095Z,99901.72
2019-03-08T16:06:28.733Z,99910.94
2019-03-08T16:08:56.370Z,99904.73
2019-03-08T16:11:24.023Z,99915.39
2019-03-08T16:13:52.047Z,99926.47
2019-03-08T16:16:19.678Z,99924.13
2019-03-08T16:18:48.244Z,99922.50
2019-03-08T16:21:15.980Z,99928.92
2019-03-08T16:23:43.610Z,99928.23
2019-03-08T16:26:11.262Z,99929.74
2019-03-08T16:28:38.897Z,99931.28
2019-03-08T16:31:13.259Z,99946.45
2019-03-08T16:33:44.016Z,99942.72
2019-03-08T16:36:16.979Z,99955.11
2019-03-08T16:38:50.807Z,99950.40
2019-03-08T16:41:23.744Z,99951.14
2019-03-08T16:44:00.886Z,99954.42
2019-03-08T16:46:38.250Z,99958.74
2019-03-08T16:49:18.183Z,99967.38
2019-03-08T16:52:00.182Z,99975.45
2019-03-08T16:54:35.453Z,99972.41
2019-03-08T16:57:11.316Z,99966.22
2019-03-08T16:59:51.368Z,99953.23
2019-03-08T17:02:25.894Z,99965.41
2019-03-08T17:05:00.416Z,99968.33
2019-03-08T17:07:35.572Z,99982.58
2019-03-08T17:10:10.968Z,99986.91
2019-03-08T17:12:46.545Z,99987.47
2019-03-08T17:15:27.536Z,99997.56
2019-03-08T17:18:15.127Z,100006.19
2019-03-08T17:20:50.921Z,100006.02
2019-03-08T17:23:26.955Z,100011.93
2019-03-08T17:26:03.445Z,100020.53
2019-03-08T17:28:38.866Z,100025.55
2019-03-08T17:31:12.679Z,100034.11
2019-03-08T17:33:59.359Z,100044.82
2019-03-08T17:36:34.952Z,100043.03
2019-03-08T17:39:12.018Z,100046.97
2019-03-08T17:41:53.103Z,100047.25
2019-03-08T17:44:30.494Z,100052.61
2019-03-08T17:47:06.665Z,100056.59
2019-03-08T17:49:54.298Z,100055.23
2019-03-08T17:52:31.267Z,100054.34
2019-03-08T17:55:09.476Z,100061.33
2019-03-08T17:57:57.086Z,100059.72
2019-03-08T18:00:30.102Z,100067.06
2019-03-08T18:03:07.682Z,100069.36
2019-03-08T18:05:54.381Z,100061.28
2019-03-08T18:08:28.182Z,100064.05
2019-03-08T18:11:01.320Z,100063.66
2019-03-08T18:13:36.738Z,100070.03
2019-03-08T18:16:09.707Z,100069.39
2019-03-08T18:18:42.728Z,100076.58
2019-03-08T18:21:23.595Z,100069.75
2019-03-08T18:24:00.259Z,100074.41
2019-03-08T18:26:36.459Z,100085.69
2019-03-08T18:29:15.140Z,100087.73
2019-03-08T18:32:05.664Z,100097.89
2019-03-08T18:34:43.067Z,100100.98
2019-03-08T18:37:23.391Z,100105.03
2019-03-08T18:40:09.493Z,100101.66
2019-03-08T18:42:52.418Z,100105.89
2019-03-08T18:45:41.035Z,100107.14
2019-03-08T18:48:17.019Z,100113.34
2019-03-08T18:51:06.763Z,100110.63
2019-03-08T18:53:41.837Z,100120.67
2019-03-08T18:56:19.046Z,100116.60
2019-03-08T18:58:53.677Z,100110.31
2019-03-08T19:01:45.488Z,100120.38
2019-03-08T19:04:32.166Z,100121.22
2019-03-08T19:07:09.067Z,100123.81
2019-03-08T19:09:45.526Z,100123.02
2019-03-08T19:12:32.215Z,100121.38
2019-03-08T19:15:16.874Z,100131.21
2019-03-08T19:17:52.245Z,100135.35
2019-03-08T19:20:41.902Z,100144.14
2019-03-08T19:23:14.403Z,100154.42
2019-03-08T19:25:56.709Z,100160.45
2019-03-08T19:28:34.923Z,100162.20
2019-03-08T19:31:11.995Z,100161.19
2019-03-08T19:33:51.550Z,100154.31
2019-03-08T19:36:38.241Z,100160.22
2019-03-08T19:39:24.933Z,100159.00
2019-03-08T19:42:02.842Z,100164.93
2019-03-08T19:44:41.266Z,100154.02
2019-03-08T19:47:15.911Z,100155.66
2019-03-08T19:50:02.590Z,100154.14
2019-03-08T19:52:37.746Z,100156.95
2019-03-08T19:55:12.277Z,100152.70
2019-03-08T19:57:54.241Z,100165.14
2019-03-08T20:00:28.887Z,100163.67
2019-03-08T20:03:01.734Z,100157.76
2019-03-08T20:05:34.791Z,100157.22
2019-03-08T20:08:16.455Z,100155.09
2019-03-08T20:10:53.955Z,100155.74
2019-03-08T20:13:30.527Z,100151.91
2019-03-08T20:16:17.236Z,100157.86
2019-03-08T20:18:54.618Z,100155.42
2019-03-08T20:21:29.963Z,100156.63
2019-03-08T20:24:04.178Z,100152.11
2019-03-08T20:26:41.879Z,100154.98
2019-03-08T20:29:16.625Z,100150.47
2019-03-08T20:31:49.395Z,100158.56
2019-03-08T20:34:25.049Z,100156.83
2019-03-08T20:37:05.510Z,100155.47
2019-03-08T20:39:42.482Z,100155.61
2019-03-08T20:42:18.793Z,100152.63
2019-03-08T20:44:51.110Z,100148.44
2019-03-08T20:47:23.907Z,100143.97
2019-03-08T20:49:51.564Z,100149.82
2019-03-08T20:52:19.496Z,100155.90
2019-03-08T20:54:47.158Z,100153.77
2019-03-08T20:57:14.811Z,100156.60
2019-03-08T20:59:42.454Z,100162.76
2019-03-08T21:02:10.102Z,100166.39
2019-03-08T21:04:37.740Z,100164.83
2019-03-08T21:07:05.665Z,100160.72
2019-03-08T21:09:33.421Z,100163.30
2019-03-08T21:12:01.063Z,100165.75
2019-03-08T21:14:28.699Z,100165.97
2019-03-08T21:16:56.344Z,100170.98
2019-03-08T21:19:23.995Z,100174.16
2019-03-08T21:21:51.811Z,100171.95
2019-03-08T21:24:19.461Z,100173.36
2019-03-08T21:26:47.146Z,100167.56
2019-03-08T21:29:14.796Z,100173.02
2019-03-08T21:31:42.431Z,100173.19
2019-03-08T21:34:10.070Z,100164.95
2019-03-08T21:36:37.908Z,100169.22
2019-03-08T21:39:05.570Z,100171.81
2019-03-08T21:41:33.215Z,100169.17
2019-03-08T21:44:00.936Z,100170.01
2019-03-08T21:46:28.592Z,100165.23
2019-03-08T21:48:56.240Z,100165.02
2019-03-08T21:51:23.880Z,100163.06
2019-03-08T21:53:51.522Z,100166.95
2019-03-08T21:56:19.278Z,100164.84
2019-03-08T21:58:47.120Z,100162.13
2019-03-08T22:01:14.780Z,100163.42
2019-03-08T22:03:44.111Z,100169.48
2019-03-08T22:06:11.743Z,100174.61
2019-03-08T22:08:46.308Z,100167.66
2019-03-08T22:11:15.352Z,100173.23
2019-03-08T22:13:43.005Z,100168.31
2019-03-08T22:16:10.766Z,100164.31
2019-03-08T22:18:38.413Z,100159.13
2019-03-08T22:21:06.140Z,100153.98
2019-03-08T22:23:33.786Z,100160.51
2019-03-08T22:26:01.428Z,100154.38
2019-03-08T22:28:29.080Z,100145.55
2019-03-08T22:30:56.754Z,100146.62
2019-03-08T22:33:24.411Z,100135.31
2019-03-08T22:35:52.062Z,100136.42
2019-03-08T22:38:19.711Z,100133.64
2019-03-08T22:40:47.352Z,100132.84
2019-03-08T22:43:14.997Z,100133.85
2019-03-08T22:45:42.629Z,100134.25
2019-03-08T22:48:10.291Z,100125.58
2019-03-08T22:50:37.938Z,100117.83
2019-03-08T22:53:05.577Z,100108.97
2019-03-08T22:55:33.222Z,100095.37
2019-03-08T22:58:00.868Z,100099.97
2019-03-08T23:00:30.179Z,100100.33
2019-03-08T23:02:57.819Z,100114.90
2019-03-08T23:05:25.459Z,100115.58
2019-03-08T23:07:53.108Z,100119.43
2019-03-08T23:10:20.759Z,100112.30
2019-03-08T23:12:48.592Z,100108.16
2019-03-08T23:15:16.524Z,100105.44
2019-03-08T23:17:44.191Z,100101.79
2019-03-08T23:20:11.826Z,100095.71
2019-03-08T23:22:39.480Z,100097.14
2019-03-08T23:25:07.166Z,100098.64
2019-03-08T23:27:39.960Z,100092.70
2019-03-08T23:30:16.023Z,100081.59
2019-03-08T23:32:47.598Z,100089.17
2019-03-08T23:35:15.238Z,100084.92
2019-03-08T23:37:42.871Z,100073.12
2019-03-08T23:40:10.796Z,100069.44
2019-03-08T23:42:38.425Z,100071.64
2019-03-08T23:45:06.069Z,100062.25
2019-03-08T23:47:33.731Z,100062.25
2019-03-08T23:50:01.374Z,100055.22
2019-03-08T23:52:29.015Z,100054.34
2019-03-08T23:54:56.880Z,100055.16
2019-03-08T23:57:24.557Z,100050.13
2019-03-08T23:59:52.206Z,100051.73
